createdAt,value
2017-11-07T00:00:37.508Z,1.2
2017-11-07T00:02:00.006Z,1.15
2017-11-07T00:03:21.836Z,1.22
2017-11-07T00:04:43.734Z,1.26
2017-11-07T00:06:05.575Z,1.09
2017-11-07T00:07:28.075Z,1.3
2017-11-07T00:08:50.595Z,1.33
2017-11-07T00:10:13.192Z,1.34
2017-11-07T00:11:35.387Z,1.44
2017-11-07T00:12:57.873Z,1.44
2017-11-07T00:14:20.380Z,1.54
2017-11-07T00:15:42.215Z,1.54
2017-11-07T00:17:04.411Z,1.45
2017-11-07T00:18:26.594Z,1.41
2017-11-07T00:19:48.467Z,1.47
2017-11-07T00:21:10.781Z,1.45
2017-11-07T00:22:32.616Z,1.41
2017-11-07T00:23:55.178Z,1.41
2017-11-07T00:25:17.355Z,1.48
2017-11-07T00:26:39.525Z,1.45
2017-11-07T00:28:02.067Z,1.44
2017-11-07T00:29:24.245Z,1.5
2017-11-07T00:30:46.470Z,1.47
2017-11-07T00:32:08.660Z,1.52
2017-11-07T00:33:31.416Z,1.47
2017-11-07T00:34:53.634Z,1.47
2017-11-07T00:36:15.151Z,1.45
2017-11-07T00:37:37.014Z,1.42
2017-11-07T00:38:59.479Z,1.41
2017-11-07T00:40:20.980Z,1.42
2017-11-07T00:41:42.825Z,1.41
2017-11-07T00:43:04.655Z,1.47
2017-11-07T00:44:27.459Z,1.48
2017-11-07T00:45:50.054Z,1.36
2017-11-07T00:47:12.554Z,1.44
2017-11-07T00:48:35.076Z,1.34
2017-11-07T00:49:57.934Z,1.34
2017-11-07T00:51:19.789Z,1.3
2017-11-07T00:52:41.982Z,1.29
2017-11-07T00:54:04.474Z,1.24
2017-11-07T00:55:26.234Z,1.26
2017-11-07T00:56:48.124Z,1.27
2017-11-07T00:58:09.713Z,1.26
2017-11-07T00:59:31.875Z,1.29
2017-11-07T01:00:54.423Z,1.32
2017-11-07T01:02:16.921Z,1.33
2017-11-07T01:03:39.241Z,1.23
2017-11-07T01:05:01.508Z,1.29
2017-11-07T01:06:23.364Z,1.32
2017-11-07T01:07:45.227Z,1.27
2017-11-07T01:09:07.065Z,1.29
2017-11-07T01:10:28.937Z,1.24
2017-11-07T01:11:51.035Z,1.26
2017-11-07T01:13:13.284Z,1.33
2017-11-07T01:14:35.781Z,1.3
2017-11-07T01:15:57.275Z,1.3
2017-11-07T01:17:19.491Z,1.23
2017-11-07T01:18:41.654Z,1.22
2017-11-07T01:20:03.499Z,1.15
2017-11-07T01:21:25.681Z,1.11
2017-11-07T01:22:47.765Z,1.04
2017-11-07T01:24:09.935Z,0.97
2017-11-07T01:25:32.125Z,1.02
2017-11-07T01:26:54.406Z,0.97
2017-11-07T01:28:16.925Z,1
2017-11-07T01:29:38.765Z,1
2017-11-07T01:31:00.698Z,0.94
2017-11-07T01:32:23.196Z,0.97
2017-11-07T01:33:45.034Z,0.97
2017-11-07T01:35:06.969Z,0.91
2017-11-07T01:36:28.555Z,0.88
2017-11-07T01:37:50.735Z,0.83
2017-11-07T01:39:12.578Z,0.8
2017-11-07T01:40:34.085Z,0.78
2017-11-07T01:41:55.939Z,0.78
2017-11-07T01:43:18.094Z,0.79
2017-11-07T01:44:40.597Z,0.79
2017-11-07T01:46:02.545Z,0.65
2017-11-07T01:47:25.058Z,0.75
2017-11-07T01:48:46.879Z,0.76
2017-11-07T01:50:08.110Z,0.76
2017-11-07T01:51:30.646Z,0.8
2017-11-07T01:52:52.820Z,0.79
2017-11-07T01:54:15.004Z,0.7
2017-11-07T01:55:37.161Z,0.69
2017-11-07T01:56:59.416Z,0.65
2017-11-07T01:58:21.246Z,0.58
2017-11-07T01:59:43.413Z,0.55
2017-11-07T02:01:05.602Z,0.58
2017-11-07T02:02:27.777Z,0.62
2017-11-07T02:03:49.622Z,0.57
2017-11-07T02:05:11.126Z,0.57
2017-11-07T02:06:33.313Z,0.61
2017-11-07T02:07:55.795Z,0.58
2017-11-07T02:09:17.962Z,0.6
2017-11-07T02:10:39.897Z,0.58
2017-11-07T02:12:01.699Z,0.53
2017-11-07T02:13:23.526Z,0.49
2017-11-07T02:14:45.736Z,0.61
2017-11-07T02:16:07.582Z,0.6
2017-11-07T02:17:29.459Z,0.5
2017-11-07T02:18:51.623Z,0.47
2017-11-07T02:20:13.139Z,0.49
2017-11-07T02:21:34.966Z,0.44
2017-11-07T02:22:57.747Z,0.39
2017-11-07T02:24:19.957Z,0.39
2017-11-07T02:25:41.807Z,0.39
2017-11-07T02:27:03.667Z,0.32
2017-11-07T02:28:25.847Z,0.41
2017-11-07T02:29:48.055Z,0.38
2017-11-07T02:31:09.237Z,0.41
2017-11-07T02:32:31.402Z,0.5
2017-11-07T02:33:53.713Z,0.55
2017-11-07T02:35:15.233Z,0.5
2017-11-07T02:36:37.054Z,0.58
2017-11-07T02:37:59.564Z,0.41
2017-11-07T02:39:21.734Z,0.38
2017-11-07T02:40:43.716Z,0.23
2017-11-07T02:42:05.999Z,0.26
2017-11-07T02:43:28.495Z,0.2
2017-11-07T02:44:50.532Z,0.23
2017-11-07T02:46:12.620Z,0.32
2017-11-07T02:47:34.842Z,0.35
2017-11-07T02:48:57.478Z,0.29
2017-11-07T02:50:19.660Z,0.24
2017-11-07T02:51:41.624Z,0.28
2017-11-07T02:53:02.809Z,0.21
2017-11-07T02:54:25.347Z,0.32
2017-11-07T02:55:47.496Z,0.41
2017-11-07T02:57:10.016Z,0.28
2017-11-07T02:58:31.857Z,0.33
2017-11-07T02:59:53.383Z,0.42
2017-11-07T03:01:15.290Z,0.33
2017-11-07T03:02:37.481Z,0.38
2017-11-07T03:03:59.734Z,0.38
2017-11-07T03:05:21.240Z,0.36
2017-11-07T03:06:43.169Z,0.31
2017-11-07T03:08:05.666Z,0.35
2017-11-07T03:09:27.539Z,0.36
2017-11-07T03:10:48.744Z,0.42
2017-11-07T03:12:10.624Z,0.49
2017-11-07T03:13:32.122Z,0.47
2017-11-07T03:14:53.695Z,0.5
2017-11-07T03:16:15.919Z,0.44
2017-11-07T03:17:38.416Z,0.44
2017-11-07T03:19:00.986Z,0.58
2017-11-07T03:20:23.164Z,0.39
2017-11-07T03:21:44.435Z,0.44
2017-11-07T03:23:06.193Z,0.39
2017-11-07T03:24:28.674Z,0.46
2017-11-07T03:25:51.231Z,0.33
2017-11-07T03:27:12.839Z,0.38
2017-11-07T03:28:34.920Z,0.39
2017-11-07T03:29:57.427Z,0.41
2017-11-07T03:31:19.276Z,0.36
2017-11-07T03:32:40.772Z,0.35
2017-11-07T03:34:02.868Z,0.49
2017-11-07T03:35:25.115Z,0.5
2017-11-07T03:36:47.292Z,0.42
2017-11-07T03:38:09.135Z,0.44
2017-11-07T03:39:31.282Z,0.51
2017-11-07T03:40:53.457Z,0.44
2017-11-07T03:42:15.647Z,0.49
2017-11-07T03:43:37.477Z,0.46
2017-11-07T03:45:00.268Z,0.49
2017-11-07T03:46:22.775Z,0.44
2017-11-07T03:47:44.292Z,0.42
2017-11-07T03:49:06.818Z,0.55
2017-11-07T03:50:28.575Z,0.5
2017-11-07T03:51:50.882Z,0.44
2017-11-07T03:53:13.386Z,0.5
2017-11-07T03:54:35.676Z,0.5
2017-11-07T03:55:57.465Z,0.57
2017-11-07T03:57:19.645Z,0.49
2017-11-07T03:58:42.388Z,0.46
2017-11-07T04:00:03.922Z,0.49
2017-11-07T04:01:26.370Z,0.41
2017-11-07T04:02:48.597Z,0.47
2017-11-07T04:04:10.775Z,0.51
2017-11-07T04:05:33.394Z,0.44
2017-11-07T04:06:55.164Z,0.57
2017-11-07T04:08:16.685Z,0.5
2017-11-07T04:09:38.855Z,0.55
2017-11-07T04:11:01.516Z,0.47
2017-11-07T04:12:23.645Z,0.46
2017-11-07T04:13:45.535Z,0.5
2017-11-07T04:15:07.472Z,0.5
2017-11-07T04:16:29.305Z,0.57
2017-11-07T04:17:51.184Z,0.57
2017-11-07T04:19:12.665Z,0.58
2017-11-07T04:20:34.682Z,0.5
2017-11-07T04:21:56.035Z,0.6
2017-11-07T04:23:18.117Z,0.6
2017-11-07T04:24:39.997Z,0.62
2017-11-07T04:26:02.247Z,0.66
2017-11-07T04:27:23.790Z,0.7
2017-11-07T04:28:46.214Z,0.68
2017-11-07T04:30:07.388Z,0.69
2017-11-07T04:31:29.900Z,0.72
2017-11-07T04:32:51.396Z,0.76
2017-11-07T04:34:12.577Z,0.76
2017-11-07T04:35:34.753Z,0.69
2017-11-07T04:36:56.686Z,0.73
2017-11-07T04:38:18.192Z,0.8
2017-11-07T04:39:40.678Z,0.76
2017-11-07T04:41:02.853Z,0.75
2017-11-07T04:42:24.694Z,0.7
2017-11-07T04:43:46.844Z,0.57
2017-11-07T04:45:09.597Z,0.62
2017-11-07T04:46:31.539Z,0.55
2017-11-07T04:47:53.617Z,0.68
2017-11-07T04:49:15.864Z,0.57
2017-11-07T04:50:37.690Z,0.46
2017-11-07T04:51:58.875Z,0.51
2017-11-07T04:53:20.734Z,0.53
2017-11-07T04:54:42.621Z,0.65
2017-11-07T04:56:05.140Z,0.55
2017-11-07T04:57:27.370Z,0.6
2017-11-07T04:58:49.315Z,0.6
2017-11-07T05:00:10.481Z,0.6
2017-11-07T05:01:32.059Z,0.58
2017-11-07T05:02:54.343Z,0.62
2017-11-07T05:04:15.831Z,0.58
2017-11-07T05:05:37.398Z,0.61
2017-11-07T05:06:59.241Z,0.65
2017-11-07T05:08:21.418Z,0.53
2017-11-07T05:09:42.966Z,0.65
2017-11-07T05:11:04.783Z,0.61
2017-11-07T05:12:26.555Z,0.61
2017-11-07T05:13:48.850Z,0.65
2017-11-07T05:15:11.049Z,0.73
2017-11-07T05:16:32.627Z,0.69
2017-11-07T05:17:54.734Z,0.68
2017-11-07T05:19:17.252Z,0.73
2017-11-07T05:20:39.894Z,0.73
2017-11-07T05:22:02.066Z,0.73
2017-11-07T05:23:24.945Z,0.78
2017-11-07T05:24:46.864Z,0.8
2017-11-07T05:26:08.704Z,0.79
2017-11-07T05:27:31.014Z,0.8
2017-11-07T05:28:53.164Z,0.8
2017-11-07T05:30:15.015Z,0.87
2017-11-07T05:31:37.193Z,0.86
2017-11-07T05:32:59.684Z,0.83
2017-11-07T05:34:21.855Z,0.84
2017-11-07T05:35:44.154Z,0.78
2017-11-07T05:37:05.984Z,0.8
2017-11-07T05:38:28.485Z,0.78
2017-11-07T05:39:50.647Z,0.79
2017-11-07T05:41:13.253Z,0.86
2017-11-07T05:42:35.104Z,0.9
2017-11-07T05:43:57.608Z,0.9
2017-11-07T05:45:20.019Z,0.9
2017-11-07T05:46:41.534Z,0.88
2017-11-07T05:48:03.433Z,0.9
2017-11-07T05:49:25.626Z,0.9
2017-11-07T05:50:47.819Z,0.88
2017-11-07T05:52:10.438Z,0.94
2017-11-07T05:53:32.604Z,1.06
2017-11-07T05:54:55.150Z,1.06
2017-11-07T05:56:17.653Z,1.02
2017-11-07T05:57:40.160Z,1
2017-11-07T05:59:02.714Z,0.98
2017-11-07T06:00:24.918Z,1
2017-11-07T06:01:46.753Z,1.08
2017-11-07T06:03:09.394Z,1.04
2017-11-07T06:04:31.572Z,1
2017-11-07T06:05:53.073Z,0.97
2017-11-07T06:07:15.588Z,1.02
2017-11-07T06:08:37.746Z,1.09
2017-11-07T06:10:00.020Z,1.06
2017-11-07T06:11:22.326Z,1.06
2017-11-07T06:12:44.823Z,1.06
2017-11-07T06:14:07.339Z,1.18
2017-11-07T06:15:29.177Z,1.08
2017-11-07T06:16:51.362Z,1.24
2017-11-07T06:18:13.193Z,1.3
2017-11-07T06:19:35.363Z,1.29
2017-11-07T06:20:56.547Z,1.22
2017-11-07T06:22:18.772Z,1.26
2017-11-07T06:23:41.008Z,1.32
2017-11-07T06:25:02.503Z,1.44
2017-11-07T06:26:24.680Z,1.41
2017-11-07T06:27:47.200Z,1.41
2017-11-07T06:29:09.413Z,1.45
2017-11-07T06:30:31.569Z,1.37
2017-11-07T06:31:53.391Z,1.34
2017-11-07T06:33:14.942Z,1.42
2017-11-07T06:34:36.103Z,1.4
2017-11-07T06:35:58.288Z,1.48
2017-11-07T06:37:20.130Z,1.54
2017-11-07T06:38:41.663Z,1.58
2017-11-07T06:40:03.171Z,1.55
2017-11-07T06:41:25.015Z,1.63
2017-11-07T06:42:47.229Z,1.77
2017-11-07T06:44:09.442Z,1.83
2017-11-07T06:45:31.948Z,1.77
2017-11-07T06:46:53.812Z,1.77
2017-11-07T06:48:16.335Z,1.98
2017-11-07T06:49:38.834Z,1.95
2017-11-07T06:51:01.023Z,1.93
2017-11-07T06:52:23.206Z,1.99
2017-11-07T06:53:45.034Z,2.06
2017-11-07T06:55:06.584Z,2.06
2017-11-07T06:56:28.492Z,2.09
2017-11-07T06:57:49.991Z,2.03
2017-11-07T06:59:12.498Z,2.12
2017-11-07T07:00:34.685Z,2.17
2017-11-07T07:01:57.363Z,2.2
2017-11-07T07:03:18.562Z,2.2
2017-11-07T07:04:40.456Z,2.25
2017-11-07T07:06:02.293Z,2.27
2017-11-07T07:07:24.065Z,2.3
2017-11-07T07:08:46.280Z,2.39
2017-11-07T07:10:08.133Z,2.35
2017-11-07T07:11:29.755Z,2.36
2017-11-07T07:12:51.986Z,2.35
2017-11-07T07:14:14.001Z,2.38
2017-11-07T07:15:36.513Z,2.43
2017-11-07T07:16:58.692Z,2.41
2017-11-07T07:18:20.869Z,2.38
2017-11-07T07:19:43.092Z,2.38
2017-11-07T07:21:05.282Z,2.46
2017-11-07T07:22:27.491Z,2.54
2017-11-07T07:23:50.099Z,2.54
2017-11-07T07:25:11.276Z,2.52
2017-11-07T07:26:33.853Z,2.6
2017-11-07T07:27:55.721Z,2.52
2017-11-07T07:29:17.266Z,2.53
2017-11-07T07:30:39.447Z,2.6
2017-11-07T07:32:01.915Z,2.56
2017-11-07T07:33:23.899Z,2.53
2017-11-07T07:34:45.996Z,2.56
2017-11-07T07:36:07.495Z,2.57
2017-11-07T07:37:29.339Z,2.6
2017-11-07T07:38:51.183Z,2.69
2017-11-07T07:40:13.595Z,2.75
2017-11-07T07:41:35.097Z,2.69
2017-11-07T07:42:57.266Z,2.89
2017-11-07T07:44:19.107Z,2.9
2017-11-07T07:45:41.223Z,2.9
2017-11-07T07:47:03.513Z,2.87
2017-11-07T07:48:25.463Z,2.93
2017-11-07T07:49:47.721Z,2.84
2017-11-07T07:51:09.532Z,2.9
2017-11-07T07:52:31.047Z,2.87
2017-11-07T07:53:52.547Z,2.93
2017-11-07T07:55:14.073Z,2.99
2017-11-07T07:56:36.240Z,3.03
2017-11-07T07:57:58.403Z,3.13
2017-11-07T07:59:20.913Z,3.05
2017-11-07T08:00:42.425Z,3.06
2017-11-07T08:02:03.934Z,3.1
2017-11-07T08:03:26.144Z,3.03
2017-11-07T08:04:48.304Z,3.02
2017-11-07T08:06:10.243Z,3.11
2017-11-07T08:07:32.997Z,3.15
2017-11-07T08:08:55.295Z,3.17
2017-11-07T08:10:17.142Z,3.32
2017-11-07T08:11:39.312Z,3.29
2017-11-07T08:13:02.222Z,3.24
2017-11-07T08:14:24.064Z,3.2
2017-11-07T08:15:45.915Z,3.2
2017-11-07T08:17:08.112Z,3.15
2017-11-07T08:18:30.604Z,3.24
2017-11-07T08:19:52.442Z,3.32
2017-11-07T08:21:14.631Z,3.47
2017-11-07T08:22:36.483Z,3.47
2017-11-07T08:23:59.244Z,3.43
2017-11-07T08:25:21.498Z,3.54
2017-11-07T08:26:43.358Z,3.51
2017-11-07T08:28:05.883Z,3.48
2017-11-07T08:29:28.303Z,3.6
2017-11-07T08:30:49.854Z,3.72
2017-11-07T08:32:12.051Z,3.73
2017-11-07T08:33:34.231Z,3.79
2017-11-07T08:34:56.463Z,3.87
2017-11-07T08:36:18.343Z,3.87
2017-11-07T08:37:40.534Z,3.93
2017-11-07T08:39:02.362Z,3.94
2017-11-07T08:40:23.669Z,4.08
2017-11-07T08:41:45.832Z,4.22
2017-11-07T08:43:07.665Z,4.24
2017-11-07T08:44:29.958Z,4.14
2017-11-07T08:45:52.124Z,4.23
2017-11-07T08:47:13.634Z,4.32
2017-11-07T08:48:36.173Z,4.3
2017-11-07T08:49:58.676Z,4.16
2017-11-07T08:51:21.564Z,4.23
2017-11-07T08:52:44.072Z,4.15
2017-11-07T08:54:05.935Z,4.14
2017-11-07T08:55:27.811Z,4.23
2017-11-07T08:56:50.588Z,4.41
2017-11-07T08:58:13.093Z,4.4
2017-11-07T08:59:34.274Z,4.29
2017-11-07T09:00:55.794Z,4.18
2017-11-07T09:02:18.156Z,4.24
2017-11-07T09:03:40.501Z,4.26
2017-11-07T09:05:02.759Z,4.27
2017-11-07T09:06:24.671Z,4.3
2017-11-07T09:07:46.504Z,4.44
2017-11-07T09:09:08.985Z,4.36
2017-11-07T09:10:31.184Z,4.33
2017-11-07T09:11:53.035Z,4.44
2017-11-07T09:13:15.497Z,4.54
2017-11-07T09:14:37.014Z,4.6
2017-11-07T09:15:58.834Z,4.67
2017-11-07T09:17:21.322Z,4.77
2017-11-07T09:18:43.507Z,4.62
2017-11-07T09:20:05.342Z,4.7
2017-11-07T09:21:27.634Z,4.92
2017-11-07T09:22:48.812Z,4.82
2017-11-07T09:24:10.656Z,4.89
2017-11-07T09:25:32.495Z,4.86
2017-11-07T09:26:54.344Z,4.85
2017-11-07T09:28:16.572Z,4.91
2017-11-07T09:29:38.283Z,4.94
2017-11-07T09:31:00.801Z,5.07
2017-11-07T09:32:22.968Z,4.96
2017-11-07T09:33:44.805Z,4.99
2017-11-07T09:35:07.323Z,5.06
2017-11-07T09:36:29.848Z,5.18
2017-11-07T09:37:52.047Z,5.28
2017-11-07T09:39:14.546Z,5.46
2017-11-07T09:40:36.753Z,5.33
2017-11-07T09:41:59.328Z,5.27
2017-11-07T09:43:21.240Z,5.35
2017-11-07T09:44:43.508Z,5.25
2017-11-07T09:46:05.667Z,5.33
2017-11-07T09:47:27.847Z,5.25
2017-11-07T09:48:49.692Z,5.3
2017-11-07T09:50:11.542Z,5.3
2017-11-07T09:51:33.785Z,5.25
2017-11-07T09:52:56.305Z,5.27
2017-11-07T09:54:18.162Z,5.35
2017-11-07T09:55:40.330Z,5.48
2017-11-07T09:57:01.841Z,5.57
2017-11-07T09:58:23.739Z,5.64
2017-11-07T09:59:45.938Z,5.43
2017-11-07T10:01:07.778Z,5.51
2017-11-07T10:02:29.977Z,5.28
2017-11-07T10:03:51.484Z,5.42
2017-11-07T10:05:13.327Z,5.39
2017-11-07T10:06:35.554Z,5.49
2017-11-07T10:07:57.389Z,5.53
2017-11-07T10:09:19.268Z,5.68
2017-11-07T10:10:41.835Z,5.76
2017-11-07T10:12:04.025Z,5.82
2017-11-07T10:13:25.198Z,5.74
2017-11-07T10:14:47.053Z,5.61
2017-11-07T10:16:09.556Z,5.48
2017-11-07T10:17:31.411Z,5.42
2017-11-07T10:18:53.983Z,5.3
2017-11-07T10:20:16.248Z,5.39
2017-11-07T10:21:38.759Z,5.22
2017-11-07T10:23:00.945Z,5.28
2017-11-07T10:24:23.756Z,5.35
2017-11-07T10:25:45.945Z,5.27
2017-11-07T10:27:08.145Z,5.42
2017-11-07T10:28:30.685Z,5.42
2017-11-07T10:29:52.504Z,5.27
2017-11-07T10:31:14.022Z,5.21
2017-11-07T10:32:36.261Z,5.09
2017-11-07T10:33:58.456Z,5.1
2017-11-07T10:35:20.389Z,5.07
2017-11-07T10:36:42.556Z,5.09
2017-11-07T10:38:04.415Z,5.07
2017-11-07T10:39:26.597Z,5.13
2017-11-07T10:40:48.835Z,5.13
2017-11-07T10:42:10.982Z,5.17
2017-11-07T10:43:33.195Z,5.22
2017-11-07T10:44:55.039Z,5.27
2017-11-07T10:46:17.198Z,5.17
2017-11-07T10:47:39.135Z,5.2
2017-11-07T10:49:01.318Z,5.12
2017-11-07T10:50:23.842Z,5.06
2017-11-07T10:51:46.038Z,5.09
2017-11-07T10:53:08.640Z,5.1
2017-11-07T10:54:30.881Z,5.09
2017-11-07T10:55:52.729Z,5.21
2017-11-07T10:57:14.925Z,5.27
2017-11-07T10:58:36.778Z,5.22
2017-11-07T10:59:58.955Z,5.33
2017-11-07T11:01:21.516Z,5.25
2017-11-07T11:02:43.465Z,5.3
2017-11-07T11:04:05.657Z,5.27
2017-11-07T11:05:27.494Z,5.33
2017-11-07T11:06:50.182Z,5.33
2017-11-07T11:08:12.189Z,5.31
2017-11-07T11:09:34.058Z,5.33
2017-11-07T11:10:55.576Z,5.4
2017-11-07T11:12:17.428Z,5.4
2017-11-07T11:13:40.251Z,5.43
2017-11-07T11:15:02.431Z,5.6
2017-11-07T11:16:23.955Z,5.65
2017-11-07T11:17:45.887Z,5.6
2017-11-07T11:19:07.766Z,5.68
2017-11-07T11:20:30.258Z,5.71
2017-11-07T11:21:52.776Z,5.78
2017-11-07T11:23:14.285Z,5.83
2017-11-07T11:24:36.486Z,5.85
2017-11-07T11:25:58.386Z,5.85
2017-11-07T11:27:20.343Z,5.85
2017-11-07T11:28:41.826Z,5.86
2017-11-07T11:30:03.728Z,5.82
2017-11-07T11:31:25.966Z,5.78
2017-11-07T11:32:47.473Z,5.79
2017-11-07T11:34:09.647Z,5.72
2017-11-07T11:35:31.168Z,5.75
2017-11-07T11:36:53.378Z,5.79
2017-11-07T11:38:15.878Z,5.9
2017-11-07T11:39:37.734Z,5.99
2017-11-07T11:40:59.268Z,6.01
2017-11-07T11:42:21.137Z,6.06
2017-11-07T11:43:43.320Z,5.97
2017-11-07T11:45:05.217Z,6.03
2017-11-07T11:46:27.069Z,6.15
2017-11-07T11:47:49.553Z,6.21
2017-11-07T11:49:11.837Z,6.38
2017-11-07T11:50:34.366Z,6.31
2017-11-07T11:51:56.277Z,6.33
2017-11-07T11:53:18.499Z,6.37
2017-11-07T11:54:41.011Z,6.37
2017-11-07T11:56:02.653Z,6.37
2017-11-07T11:57:24.823Z,6.52
2017-11-07T11:58:46.753Z,6.58
2017-11-07T12:00:08.946Z,6.67
2017-11-07T12:01:30.781Z,6.8
2017-11-07T12:02:52.976Z,6.8
2017-11-07T12:04:15.176Z,6.94
2017-11-07T12:05:37.698Z,6.97
2017-11-07T12:06:59.856Z,6.99
2017-11-07T12:08:22.056Z,7.05
2017-11-07T12:09:44.258Z,7.06
2017-11-07T12:11:05.799Z,7.03
2017-11-07T12:12:28.064Z,7.06
2017-11-07T12:13:50.672Z,6.89
2017-11-07T12:15:12.728Z,6.92
2017-11-07T12:16:34.651Z,6.85
2017-11-07T12:17:56.187Z,6.76
2017-11-07T12:19:18.385Z,6.8
2017-11-07T12:20:40.617Z,6.79
2017-11-07T12:22:02.810Z,6.64
2017-11-07T12:23:24.472Z,6.62
2017-11-07T12:24:46.769Z,6.52
2017-11-07T12:26:08.605Z,6.37
2017-11-07T12:27:30.807Z,6.28
2017-11-07T12:28:53.100Z,6.28
2017-11-07T12:30:15.549Z,6.4
2017-11-07T12:31:37.454Z,6.37
2017-11-07T12:32:58.966Z,6.48
2017-11-07T12:34:21.154Z,6.52
2017-11-07T12:35:43.406Z,6.49
2017-11-07T12:37:05.289Z,6.55
2017-11-07T12:38:27.491Z,6.54
2017-11-07T12:39:49.009Z,6.37
2017-11-07T12:41:11.196Z,6.4
2017-11-07T12:42:33.375Z,6.25
2017-11-07T12:43:54.567Z,6.17
2017-11-07T12:45:16.783Z,6.04
2017-11-07T12:46:39.307Z,5.94
2017-11-07T12:48:01.526Z,5.94
2017-11-07T12:49:23.140Z,6.03
2017-11-07T12:50:44.988Z,5.93
2017-11-07T12:52:07.180Z,6.17
2017-11-07T12:53:29.357Z,6.11
2017-11-07T12:54:51.596Z,6.03
2017-11-07T12:56:14.215Z,6.06
2017-11-07T12:57:36.205Z,5.97
2017-11-07T12:58:58.709Z,6.14
2017-11-07T13:00:20.579Z,6.09
2017-11-07T13:01:43.088Z,6.12
2017-11-07T13:03:05.794Z,6.09
2017-11-07T13:04:27.297Z,6.09
2017-11-07T13:05:49.476Z,6.09
2017-11-07T13:07:12.025Z,6.08
2017-11-07T13:08:34.535Z,6.04
2017-11-07T13:09:56.718Z,6.18
2017-11-07T13:11:18.871Z,6.22
2017-11-07T13:12:40.404Z,6.21
2017-11-07T13:14:02.698Z,6.19
2017-11-07T13:15:24.892Z,6.31
2017-11-07T13:16:46.750Z,6.31
2017-11-07T13:18:08.928Z,6.3
2017-11-07T13:19:31.429Z,6.21
2017-11-07T13:20:53.300Z,6.12
2017-11-07T13:22:15.495Z,6.11
2017-11-07T13:23:37.686Z,6.06
2017-11-07T13:24:59.864Z,6.01
2017-11-07T13:26:21.712Z,6.01
2017-11-07T13:27:44.242Z,6.01
2017-11-07T13:29:06.764Z,5.99
2017-11-07T13:30:28.327Z,6.03
2017-11-07T13:31:50.530Z,6.01
2017-11-07T13:33:12.486Z,5.99
2017-11-07T13:34:35.046Z,5.81
2017-11-07T13:35:56.899Z,5.9
2017-11-07T13:37:19.408Z,5.81
2017-11-07T13:38:41.239Z,5.91
2017-11-07T13:40:03.218Z,5.99
2017-11-07T13:41:25.426Z,6.06
2017-11-07T13:42:47.655Z,5.99
2017-11-07T13:44:09.518Z,6.03
2017-11-07T13:45:30.856Z,6.09
2017-11-07T13:46:53.372Z,5.99
2017-11-07T13:48:15.615Z,5.86
2017-11-07T13:49:37.790Z,5.68
2017-11-07T13:50:59.720Z,5.63
2017-11-07T13:52:21.951Z,5.68
2017-11-07T13:53:44.110Z,5.57
2017-11-07T13:55:06.663Z,5.56
2017-11-07T13:56:28.503Z,5.57
2017-11-07T13:57:50.680Z,5.53
2017-11-07T13:59:12.908Z,5.49
2017-11-07T14:00:35.446Z,5.42
2017-11-07T14:01:57.631Z,5.43
2017-11-07T14:03:20.144Z,5.42
2017-11-07T14:04:42.218Z,5.39
2017-11-07T14:06:04.751Z,5.43
2017-11-07T14:07:26.624Z,5.53
2017-11-07T14:08:52.048Z,5.4
2017-11-07T14:10:16.169Z,5.48
2017-11-07T14:11:38.082Z,5.54
2017-11-07T14:13:00.369Z,5.54
2017-11-07T14:14:22.551Z,5.57
2017-11-07T14:15:45.106Z,5.51
2017-11-07T14:17:07.335Z,5.48
2017-11-07T14:18:29.257Z,5.6
2017-11-07T14:19:51.464Z,5.67
2017-11-07T14:21:13.340Z,5.68
2017-11-07T14:22:35.307Z,5.67
2017-11-07T14:23:57.604Z,5.58
2017-11-07T14:25:19.570Z,5.68
2017-11-07T14:26:41.765Z,5.56
2017-11-07T14:28:03.957Z,5.58
2017-11-07T14:29:26.182Z,5.58
2017-11-07T14:30:48.360Z,5.4
2017-11-07T14:32:10.550Z,5.51
2017-11-07T14:33:32.398Z,5.43
2017-11-07T14:34:54.574Z,5.42
2017-11-07T14:36:16.470Z,5.35
2017-11-07T14:37:38.692Z,5.38
2017-11-07T14:39:00.226Z,5.25
2017-11-07T14:40:22.405Z,5.35
2017-11-07T14:41:43.942Z,5.25
2017-11-07T14:43:06.612Z,5.28
2017-11-07T14:44:28.454Z,5.27
2017-11-07T14:45:50.292Z,5.33
2017-11-07T14:47:12.808Z,5.35
2017-11-07T14:48:34.998Z,5.43
2017-11-07T14:49:57.299Z,5.48
2017-11-07T14:51:19.166Z,5.48
2017-11-07T14:52:41.343Z,5.4
2017-11-07T14:54:04.117Z,5.53
2017-11-07T14:55:25.995Z,5.39
2017-11-07T14:56:47.867Z,5.42
2017-11-07T14:58:09.972Z,5.43
2017-11-07T14:59:32.195Z,5.42
2017-11-07T15:00:54.384Z,5.45
2017-11-07T15:02:16.564Z,5.43
2017-11-07T15:03:38.750Z,5.45
2017-11-07T15:05:00.959Z,5.49
2017-11-07T15:06:23.472Z,5.49
2017-11-07T15:07:45.652Z,5.45
2017-11-07T15:09:08.172Z,5.54
2017-11-07T15:10:30.762Z,5.51
2017-11-07T15:11:53.293Z,5.53
2017-11-07T15:13:15.811Z,5.56
2017-11-07T15:14:38.352Z,5.6
2017-11-07T15:16:00.533Z,5.6
2017-11-07T15:17:22.730Z,5.61
2017-11-07T15:18:44.955Z,5.68
2017-11-07T15:20:07.161Z,5.71
2017-11-07T15:21:29.022Z,5.68
2017-11-07T15:22:51.219Z,5.72
2017-11-07T15:24:13.056Z,5.71
2017-11-07T15:25:35.563Z,5.64
2017-11-07T15:26:57.743Z,5.74
2017-11-07T15:28:19.331Z,5.72
2017-11-07T15:29:41.521Z,5.76
2017-11-07T15:31:03.029Z,5.76
2017-11-07T15:32:25.245Z,5.75
2017-11-07T15:33:47.527Z,5.72
2017-11-07T15:35:10.034Z,5.76
2017-11-07T15:36:32.571Z,5.76
2017-11-07T15:37:54.781Z,5.83
2017-11-07T15:39:16.331Z,5.89
2017-11-07T15:40:38.941Z,5.9
2017-11-07T15:42:00.892Z,5.83
2017-11-07T15:43:23.085Z,5.83
2017-11-07T15:44:45.324Z,5.79
2017-11-07T15:46:06.861Z,5.81
2017-11-07T15:47:30.126Z,5.9
2017-11-07T15:48:53.631Z,5.83
2017-11-07T15:50:16.170Z,5.83
2017-11-07T15:51:38.533Z,5.82
2017-11-07T15:53:01.099Z,5.83
2017-11-07T15:54:23.631Z,5.79
2017-11-07T15:55:46.172Z,5.82
2017-11-07T15:57:08.363Z,5.82
2017-11-07T15:58:30.552Z,5.86
2017-11-07T15:59:52.399Z,5.86
2017-11-07T16:01:14.923Z,5.94
2017-11-07T16:02:37.123Z,5.9
2017-11-07T16:03:59.654Z,5.82
2017-11-07T16:05:22.216Z,5.93
2017-11-07T16:06:44.753Z,5.9
2017-11-07T16:08:06.655Z,5.89
2017-11-07T16:09:28.840Z,5.96
2017-11-07T16:10:51.462Z,5.97
2017-11-07T16:12:13.631Z,5.97
2017-11-07T16:13:35.842Z,5.96
2017-11-07T16:14:58.433Z,5.93
2017-11-07T16:16:20.660Z,5.94
2017-11-07T16:17:42.900Z,5.93
2017-11-07T16:19:05.412Z,6.06
2017-11-07T16:20:27.610Z,6.01
2017-11-07T16:21:50.275Z,6
2017-11-07T16:23:12.558Z,6
2017-11-07T16:24:34.795Z,5.96
2017-11-07T16:25:57.345Z,6.04
2017-11-07T16:27:19.572Z,6.06
2017-11-07T16:28:42.107Z,5.94
2017-11-07T16:30:04.294Z,5.99
2017-11-07T16:31:26.483Z,5.99
2017-11-07T16:32:48.662Z,6.04
2017-11-07T16:34:11.209Z,6.03
2017-11-07T16:35:33.192Z,6.01
2017-11-07T16:36:55.781Z,6.03
2017-11-07T16:38:18.294Z,6
2017-11-07T16:39:40.929Z,6.06
2017-11-07T16:41:03.454Z,6.06
2017-11-07T16:42:25.972Z,6.06
2017-11-07T16:43:48.533Z,6.08
2017-11-07T16:45:10.722Z,6.01
2017-11-07T16:46:32.633Z,6
2017-11-07T16:47:54.959Z,5.96
2017-11-07T16:49:16.822Z,5.97
2017-11-07T16:50:38.682Z,5.99
2017-11-07T16:52:00.942Z,6.08
2017-11-07T16:53:23.462Z,6.01
2017-11-07T16:54:46.088Z,6
2017-11-07T16:56:07.932Z,5.97
2017-11-07T16:57:30.130Z,6.03
2017-11-07T16:58:52.651Z,6
2017-11-07T17:00:15.191Z,5.96
2017-11-07T17:01:37.724Z,6.03
2017-11-07T17:02:59.971Z,6
2017-11-07T17:04:21.822Z,6
2017-11-07T17:05:44.025Z,6.03
2017-11-07T17:07:05.883Z,6.12
2017-11-07T17:08:28.119Z,5.97
2017-11-07T17:09:50.641Z,6.04
2017-11-07T17:11:12.873Z,6.03
2017-11-07T17:12:35.088Z,5.93
2017-11-07T17:13:57.282Z,6.03
2017-11-07T17:15:18.826Z,6.04
2017-11-07T17:16:41.396Z,6.01
2017-11-07T17:18:03.594Z,5.99
2017-11-07T17:19:26.245Z,6.03
2017-11-07T17:20:48.871Z,6.01
2017-11-07T17:22:11.073Z,6.06
2017-11-07T17:23:33.615Z,6.03
2017-11-07T17:24:55.925Z,6
2017-11-07T17:26:18.127Z,6
2017-11-07T17:27:41.013Z,5.99
2017-11-07T17:29:03.223Z,6.01
2017-11-07T17:30:25.754Z,6.03
2017-11-07T17:31:47.616Z,6.01
2017-11-07T17:33:09.494Z,6.03
2017-11-07T17:34:32.085Z,5.91
2017-11-07T17:35:54.633Z,6
2017-11-07T17:37:16.824Z,5.96
2017-11-07T17:38:39.084Z,6.06
2017-11-07T17:40:01.392Z,5.94
2017-11-07T17:41:23.917Z,6
2017-11-07T17:42:46.181Z,5.99
2017-11-07T17:44:07.753Z,6
2017-11-07T17:45:30.282Z,5.94
2017-11-07T17:46:52.825Z,6.06
2017-11-07T17:48:14.662Z,6.03
2017-11-07T17:49:37.219Z,6.03
2017-11-07T17:50:59.556Z,5.97
2017-11-07T17:52:22.127Z,5.91
2017-11-07T17:53:44.314Z,5.96
2017-11-07T17:55:06.987Z,5.97
2017-11-07T17:56:29.515Z,6.03
2017-11-07T17:57:52.043Z,5.97
2017-11-07T17:59:14.017Z,6.01
2017-11-07T18:00:36.226Z,5.97
2017-11-07T18:01:58.755Z,5.97
2017-11-07T18:03:21.297Z,5.99
2017-11-07T18:04:43.557Z,6
2017-11-07T18:06:05.447Z,5.94
2017-11-07T18:07:27.663Z,6.01
2017-11-07T18:08:50.325Z,6.04
2017-11-07T18:10:12.543Z,6.04
2017-11-07T18:11:34.792Z,5.93
2017-11-07T18:12:56.650Z,5.99
2017-11-07T18:14:19.194Z,5.97
2017-11-07T18:15:41.301Z,5.99
2017-11-07T18:17:03.839Z,5.96
2017-11-07T18:18:26.035Z,6.04
2017-11-07T18:19:47.579Z,5.94